Time;durP1;ratioP1;P1;durP2;ratioP2;P2;SDS_P1;SDS_P2;PMS_P1;PMS_P2;Temp;Humidity;BMP_temperature;BMP_pressure;BME280_temperature;BME280_humidity;BME280_pressure;Samples;Min_cycle;Max_cycle;Signal;HPM_P1;HPM_P2
2022/01/20 00:02:00;;;;;;;13.17;5.57;;;;;;;1.05;98.99;100939.59;5088603;28;20248;-73
2022/01/20 00:04:35;;;;;;;10.53;5.10;;;;;;;1.00;100.00;100936.72;5072974;28;20218;-72
2022/01/20 00:07:27;;;;;;;12.33;5.97;;;;;;;0.87;100.00;100929.94;5075728;28;20209;-73
2022/01/20 00:26:25;;;;;;;10.20;5.10;;;;;;;1.05;100.00;100930.28;5090802;28;20216;-72
2022/01/20 00:28:56;;;;;;;7.77;4.50;;;;;;;0.97;100.00;100921.22;5089970;28;20200;-73
2022/01/20 00:34:14;;;;;;;10.63;5.83;;;;;;;0.92;100.00;100920.03;5065749;28;20260;-73
2022/01/20 00:39:27;;;;;;;16.60;5.67;;;;;;;0.90;100.00;100919.94;5072503;28;20264;-73
2022/01/20 00:41:54;;;;;;;6.83;4.80;;;;;;;0.92;100.00;100918.38;5075349;28;20202;-73
2022/01/20 00:44:21;;;;;;;11.23;5.07;;;;;;;0.86;100.00;100909.41;5092367;28;20214;-74
2022/01/20 00:46:48;;;;;;;9.83;3.87;;;;;;;0.89;100.00;100909.63;5092971;28;20201;-73
2022/01/20 00:49:16;;;;;;;6.97;4.50;;;;;;;0.82;100.00;100893.00;5090334;28;20190;-73
2022/01/20 00:51:43;;;;;;;8.33;3.93;;;;;;;0.83;100.00;100891.34;5084334;28;20198;-73
2022/01/20 00:54:10;;;;;;;9.10;4.47;;;;;;;0.84;100.00;100888.91;5073314;28;20194;-73
2022/01/20 00:56:37;;;;;;;14.30;5.27;;;;;;;0.85;100.00;100889.78;5079306;28;20282;-73
2022/01/20 00:59:04;;;;;;;4.57;3.70;;;;;;;0.80;100.00;100858.84;5089817;28;20247;-72
2022/01/20 01:01:30;;;;;;;11.67;5.03;;;;;;;1.00;99.46;100870.34;5073152;28;20187;-73
2022/01/20 01:03:57;;;;;;;12.83;4.97;;;;;;;0.94;99.87;100868.28;5082256;28;20226;-72
2022/01/20 01:06:41;;;;;;;6.80;3.07;;;;;;;1.03;99.05;100860.38;5071801;28;20230;-73
2022/01/20 01:09:08;;;;;;;7.40;4.10;;;;;;;1.10;98.30;100856.53;5081025;28;20202;-73
2022/01/20 01:11:36;;;;;;;9.43;3.97;;;;;;;1.13;98.26;100849.94;5072209;28;20226;-75
2022/01/20 01:14:04;;;;;;;9.50;4.57;;;;;;;1.27;96.69;100838.06;5092075;28;20190;-73
2022/01/20 01:19:48;;;;;;;7.47;4.60;;;;;;;1.25;96.36;100850.72;5092272;28;20193;-73
2022/01/20 01:22:21;;;;;;;10.63;4.47;;;;;;;1.26;95.42;100824.41;5078923;28;20327;-73
2022/01/20 01:24:51;;;;;;;9.47;4.43;;;;;;;1.09;97.04;100788.38;5093410;28;20228;-73
2022/01/20 01:27:18;;;;;;;9.63;4.57;;;;;;;1.31;95.82;100806.81;5085481;28;20194;-75
2022/01/20 01:30:02;;;;;;;9.70;4.23;;;;;;;1.37;94.73;100802.97;5088968;28;20201;-72
2022/01/20 01:32:37;;;;;;;9.60;5.07;;;;;;;1.36;95.11;100802.88;5090404;28;20198;-74
2022/01/20 01:35:07;;;;;;;12.83;4.80;;;;;;;1.39;93.68;100775.84;5088272;28;20676;-73
2022/01/20 01:38:24;;;;;;;14.80;4.73;;;;;;;1.41;93.26;100763.16;5073190;28;20282;-73
2022/01/20 01:40:26;;;;;;;6.27;4.37;;;;;;;1.47;93.55;100774.66;5091193;28;20285;-73
2022/01/20 01:42:54;;;;;;;13.23;4.43;;;;;;;1.44;93.26;100779.56;5090842;28;20198;-73
2022/01/20 01:45:26;;;;;;;11.80;4.67;;;;;;;1.45;92.98;100771.13;5071712;28;20199;-72
2022/01/20 01:47:53;;;;;;;9.57;5.20;;;;;;;1.49;93.19;100760.31;5076293;28;20201;-74
2022/01/20 01:50:20;;;;;;;15.80;3.87;;;;;;;1.46;92.57;100746.47;5089798;28;20194;-74
2022/01/20 01:52:48;;;;;;;6.07;2.50;;;;;;;1.53;92.28;100757.94;5092132;28;20676;-73
2022/01/20 01:55:16;;;;;;;13.50;5.03;;;;;;;1.45;92.84;100740.47;5095407;28;20189;-73
2022/01/20 01:57:44;;;;;;;8.47;3.90;;;;;;;1.44;91.78;100737.81;5088969;28;20910;-74
2022/01/20 02:00:12;;;;;;;4.40;2.63;;;;;;;1.57;92.34;100749.69;5079471;28;20213;-73
2022/01/20 02:02:40;;;;;;;5.70;3.27;;;;;;;1.52;91.92;100753.63;5093655;28;20555;-73
2022/01/20 02:05:10;;;;;;;9.97;4.70;;;;;;;1.60;90.67;100742.19;5084272;28;20222;-72
2022/01/20 02:18:44;;;;;;;8.87;4.80;;;;;;;1.68;88.86;100721.41;5086828;28;20256;-74
2022/01/20 02:21:12;;;;;;;7.77;4.30;;;;;;;1.56;88.91;100722.34;5074254;28;20222;-73
2022/01/20 02:23:40;;;;;;;3.80;3.43;;;;;;;1.66;88.28;100711.88;5076096;28;20246;-74
2022/01/20 02:26:07;;;;;;;10.00;4.50;;;;;;;1.80;86.44;100719.59;5083193;28;20190;-73
2022/01/20 02:28:34;;;;;;;7.77;4.30;;;;;;;1.78;86.87;100726.31;5085534;28;20195;-73
2022/01/20 02:31:01;;;;;;;12.20;6.10;;;;;;;1.70;86.45;100708.72;5092162;28;20565;-74
2022/01/20 02:33:30;;;;;;;12.77;5.80;;;;;;;1.78;85.83;100704.97;5095198;28;20190;-75
2022/01/20 02:36:02;;;;;;;10.17;4.47;;;;;;;1.67;86.60;100685.56;5095100;28;20251;-74
2022/01/20 02:38:35;;;;;;;10.10;4.60;;;;;;;1.68;85.96;100700.06;5086567;28;20282;-73
2022/01/20 02:46:31;;;;;;;12.50;5.70;;;;;;;0.72;100.00;100700.91;5075866;28;20696;-73
2022/01/20 02:48:58;;;;;;;14.03;6.70;;;;;;;0.43;100.00;100699.91;5086652;28;20198;-73
2022/01/20 02:51:25;;;;;;;7.57;5.93;;;;;;;0.12;100.00;100691.06;5092339;28;20597;-73
2022/01/20 02:53:53;;;;;;;5.67;4.30;;;;;;;-0.20;100.00;100649.81;5094747;28;20288;-73
2022/01/20 02:56:20;;;;;;;9.60;5.80;;;;;;;-0.02;100.00;100691.81;5092898;28;20224;-73
2022/01/20 02:58:48;;;;;;;8.33;6.33;;;;;;;0.23;100.00;100685.00;5084222;28;20187;-74
2022/01/20 03:01:15;;;;;;;8.50;5.77;;;;;;;0.15;100.00;100686.16;5077906;28;20209;-74
2022/01/20 03:03:42;;;;;;;19.87;7.10;;;;;;;-0.10;100.00;100685.31;5082754;28;20214;-73
2022/01/20 03:06:09;;;;;;;20.53;7.60;;;;;;;-0.20;100.00;100681.28;5073915;28;20222;-73
2022/01/20 03:08:36;;;;;;;17.53;6.33;;;;;;;-0.27;100.00;100683.31;5082520;28;20194;-73
2022/01/20 03:11:05;;;;;;;13.03;7.27;;;;;;;-0.52;100.00;100674.03;5088403;28;20675;-73
2022/01/20 03:13:32;;;;;;;13.80;7.70;;;;;;;-0.56;100.00;100666.06;5075340;28;20191;-73
2022/01/20 03:15:59;;;;;;;10.93;6.77;;;;;;;-0.68;100.00;100667.81;5091301;28;20202;-73
2022/01/20 03:18:26;;;;;;;10.27;5.90;;;;;;;-0.86;100.00;100652.16;5087204;28;20204;-73
2022/01/20 03:20:52;;;;;;;12.20;7.03;;;;;;;-0.86;100.00;100662.34;5072999;28;20206;-73
2022/01/20 03:23:19;;;;;;;13.70;6.90;;;;;;;-0.92;100.00;100648.28;5087255;28;20198;-73
2022/01/20 03:25:46;;;;;;;16.00;6.77;;;;;;;-0.96;100.00;100653.97;5093378;28;20198;-73
2022/01/20 03:28:14;;;;;;;9.80;5.60;;;;;;;-0.85;100.00;100637.75;5081680;28;20190;-74
2022/01/20 03:30:41;;;;;;;12.83;6.70;;;;;;;-0.67;100.00;100644.97;5093930;28;20198;-76
2022/01/20 03:33:08;;;;;;;12.10;6.13;;;;;;;-0.36;100.00;100657.25;5073441;28;20198;-74
2022/01/20 03:35:35;;;;;;;10.03;6.37;;;;;;;-0.34;100.00;100650.56;5077101;28;20638;-73
2022/01/20 03:38:02;;;;;;;5.97;4.87;;;;;;;-0.59;100.00;100608.19;5076509;28;20260;-74
2022/01/20 03:40:29;;;;;;;12.00;5.87;;;;;;;-0.37;100.00;100646.16;5090091;28;20191;-73
2022/01/20 03:42:56;;;;;;;8.13;5.73;;;;;;;-0.30;100.00;100647.47;5082800;28;20182;-74
2022/01/20 03:45:27;;;;;;;10.83;4.90;;;;;;;-0.18;100.00;100649.13;5093739;28;20229;-74
2022/01/20 03:47:58;;;;;;;8.10;4.30;;;;;;;-0.42;100.00;100657.69;5086190;28;20202;-74
2022/01/20 03:53:06;;;;;;;20.03;6.70;;;;;;;-0.77;100.00;100655.31;5059913;28;20666;-73
2022/01/20 03:55:33;;;;;;;9.47;6.47;;;;;;;-0.91;100.00;100648.41;5073750;28;20633;-73
2022/01/20 03:58:00;;;;;;;11.37;6.87;;;;;;;-1.05;100.00;100644.00;5075194;28;20206;-74
2022/01/20 04:00:28;;;;;;;7.87;4.60;;;;;;;-0.90;100.00;100634.91;5085686;28;20198;-74
2022/01/20 04:02:55;;;;;;;12.23;4.67;;;;;;;-0.33;100.00;100631.97;5076692;28;20217;-73
2022/01/20 04:05:22;;;;;;;4.60;3.43;;;;;;;0.07;100.00;100628.72;5090291;28;20225;-73
2022/01/20 04:07:49;;;;;;;3.17;2.87;;;;;;;0.44;100.00;100598.78;5091892;28;20226;-74
2022/01/20 04:10:15;;;;;;;8.57;4.77;;;;;;;0.86;98.60;100633.75;5073225;28;20191;-73
2022/01/20 04:12:42;;;;;;;6.10;3.80;;;;;;;1.10;95.10;100631.84;5072467;28;20199;-74
2022/01/20 04:15:10;;;;;;;3.30;3.00;;;;;;;1.23;91.94;100630.13;5082726;28;20787;-74
2022/01/20 04:17:41;;;;;;;8.83;3.37;;;;;;;1.34;88.95;100638.41;5091751;28;20190;-73
2022/01/20 04:20:09;;;;;;;2.47;2.27;;;;;;;1.40;87.02;100624.34;5072303;28;20287;-74
2022/01/20 04:22:36;;;;;;;5.10;3.37;;;;;;;1.51;85.27;100617.31;5079705;28;20209;-74
2022/01/20 04:25:04;;;;;;;8.70;3.70;;;;;;;1.46;84.43;100617.03;5092873;28;20232;-74
2022/01/20 04:27:31;;;;;;;11.40;3.03;;;;;;;1.47;84.15;100620.47;5081352;28;20214;-74
2022/01/20 04:29:58;;;;;;;2.00;1.90;;;;;;;1.32;83.07;100583.81;5089823;28;20193;-74
2022/01/20 04:32:25;;;;;;;7.37;3.33;;;;;;;1.51;82.71;100612.19;5092799;28;20198;-74
2022/01/20 04:34:54;;;;;;;8.63;4.83;;;;;;;1.59;81.79;100621.22;5092661;28;20195;-73
2022/01/20 04:37:21;;;;;;;23.20;9.87;;;;;;;1.56;80.58;100615.03;5081096;28;20252;-73
2022/01/20 04:39:50;;;;;;;5.43;3.70;;;;;;;1.63;79.58;100615.50;5086492;28;20186;-74
2022/01/20 04:42:19;;;;;;;7.93;4.33;;;;;;;1.57;79.49;100602.31;5087280;28;20182;-72
2022/01/20 04:44:51;;;;;;;6.40;4.40;;;;;;;1.59;79.02;100610.09;5078663;28;20723;-74
2022/01/20 04:47:33;;;;;;;11.87;6.60;;;;;;;1.57;78.40;100611.69;5090588;28;20194;-73
2022/01/20 04:58:14;;;;;;;8.97;4.80;;;;;;;0.70;99.00;100602.97;5077149;28;20576;-74
2022/01/20 05:00:40;;;;;;;8.63;5.13;;;;;;;0.60;100.00;100601.53;5092281;28;20573;-74
2022/01/20 05:03:07;;;;;;;9.07;5.40;;;;;;;0.38;100.00;100593.31;5092183;28;20206;-73
2022/01/20 05:05:36;;;;;;;9.00;4.57;;;;;;;0.10;100.00;100605.97;5091665;28;20226;-74
2022/01/20 05:08:03;;;;;;;11.43;6.40;;;;;;;-0.01;100.00;100586.56;5077173;28;20191;-76
2022/01/20 05:10:33;;;;;;;13.57;5.17;;;;;;;-0.15;100.00;100602.63;5087840;28;20191;-72
2022/01/20 05:13:20;;;;;;;11.13;5.73;;;;;;;-0.12;100.00;100583.31;5073221;28;20195;-73
2022/01/20 05:15:47;;;;;;;15.67;5.47;;;;;;;-0.18;100.00;100595.63;5083543;28;20230;-73
2022/01/20 05:18:14;;;;;;;9.80;5.60;;;;;;;-0.27;100.00;100596.72;5088410;28;20182;-73
2022/01/20 05:20:42;;;;;;;18.17;7.20;;;;;;;-0.64;100.00;100590.81;5070933;28;20222;-75
2022/01/20 05:23:09;;;;;;;12.90;6.30;;;;;;;-0.65;100.00;100584.88;5073145;28;20190;-75
2022/01/20 05:25:36;;;;;;;13.97;7.10;;;;;;;-0.74;100.00;100586.78;5070791;28;20233;-71
2022/01/20 05:28:03;;;;;;;13.13;7.07;;;;;;;-0.80;100.00;100591.47;5075501;28;20197;-74
2022/01/20 05:30:30;;;;;;;14.77;7.50;;;;;;;-0.87;100.00;100591.84;5091313;28;20194;-74
2022/01/20 05:32:56;;;;;;;13.27;8.00;;;;;;;-1.15;100.00;100567.84;5091804;28;20191;-74
2022/01/20 05:35:23;;;;;;;21.00;9.10;;;;;;;-1.06;100.00;100587.16;5073663;28;20211;-74
2022/01/20 05:37:51;;;;;;;21.70;9.97;;;;;;;-1.09;100.00;100597.13;5072880;28;20565;-73
2022/01/20 05:40:18;;;;;;;14.10;8.30;;;;;;;-1.10;100.00;100587.72;5072189;28;20191;-74
2022/01/20 05:42:45;;;;;;;21.13;8.97;;;;;;;-1.11;100.00;100583.44;5078581;28;20189;-73
2022/01/20 05:45:13;;;;;;;15.40;8.47;;;;;;;-1.05;100.00;100588.03;5075973;28;20222;-73
2022/01/20 05:47:44;;;;;;;17.30;8.73;;;;;;;-1.16;100.00;100594.94;5072288;28;20222;-74
2022/01/20 05:50:12;;;;;;;21.83;7.77;;;;;;;-1.17;100.00;100597.34;5083882;28;20194;-73
2022/01/20 05:52:41;;;;;;;14.43;8.13;;;;;;;-1.25;100.00;100588.34;5073473;28;20199;-74
2022/01/20 05:55:11;;;;;;;14.90;8.53;;;;;;;-1.05;100.00;100550.75;5071282;28;20202;-77
2022/01/20 05:57:38;;;;;;;16.73;7.57;;;;;;;-1.17;100.00;100577.91;5072223;28;20194;-74
2022/01/20 06:00:06;;;;;;;11.07;7.13;;;;;;;-1.22;100.00;100573.28;5075328;28;20191;-74
2022/01/20 06:02:36;;;;;;;17.83;8.77;;;;;;;-1.50;100.00;100543.38;5083380;28;20194;-74
2022/01/20 06:05:04;;;;;;;33.77;15.13;;;;;;;-1.26;100.00;100579.81;5084928;28;20225;-73
2022/01/20 06:07:31;;;;;;;23.57;13.57;;;;;;;-1.54;100.00;100543.09;5091373;28;20318;-73
2022/01/20 06:09:58;;;;;;;21.93;7.57;;;;;;;-1.30;100.00;100576.94;5075601;28;20669;-73
2022/01/20 06:12:26;;;;;;;14.23;7.50;;;;;;;-1.31;100.00;100572.63;5082019;28;20190;-77
2022/01/20 06:14:53;;;;;;;15.87;8.10;;;;;;;-1.43;100.00;100556.53;5090987;28;20194;-74
2022/01/20 06:17:26;;;;;;;14.43;7.53;;;;;;;-1.45;100.00;100556.41;5090976;28;20248;-74
2022/01/20 06:19:54;;;;;;;39.50;16.17;;;;;;;-1.23;100.00;100576.59;5084750;28;20766;-74
2022/01/20 06:22:21;;;;;;;46.13;17.73;;;;;;;-1.21;100.00;100583.53;5086715;28;20235;-76
2022/01/20 06:24:47;;;;;;;25.20;12.13;;;;;;;-1.02;100.00;100575.53;5089368;28;20225;-75
2022/01/20 06:27:14;;;;;;;33.40;15.50;;;;;;;-0.99;100.00;100578.28;5082244;28;20194;-75
2022/01/20 06:29:43;;;;;;;37.90;15.13;;;;;;;-0.94;100.00;100582.03;5090868;28;20202;-73
2022/01/20 06:32:09;;;;;;;45.43;15.70;;;;;;;-0.93;100.00;100588.00;5088781;28;20215;-73
2022/01/20 06:34:36;;;;;;;21.57;10.70;;;;;;;-1.00;100.00;100556.19;5090147;28;20209;-75
2022/01/20 06:37:04;;;;;;;26.03;10.33;;;;;;;-0.85;100.00;100567.38;5092541;28;20198;-74
2022/01/20 06:39:30;;;;;;;19.10;11.03;;;;;;;-1.01;100.00;100565.47;5094513;28;20194;-74
2022/01/20 06:41:57;;;;;;;21.30;10.57;;;;;;;-0.92;100.00;100565.19;5093907;28;20194;-72
2022/01/20 06:44:25;;;;;;;33.70;15.17;;;;;;;-0.91;100.00;100561.88;5090457;28;20688;-74
2022/01/20 06:46:53;;;;;;;40.77;16.57;;;;;;;-0.92;100.00;100537.19;5094505;28;20194;-74
2022/01/20 06:49:20;;;;;;;30.53;13.00;;;;;;;-0.80;100.00;100547.31;5092233;28;20236;-74
2022/01/20 06:51:47;;;;;;;30.83;12.33;;;;;;;-0.65;100.00;100554.31;5093720;28;20205;-74
2022/01/20 06:54:15;;;;;;;21.97;11.73;;;;;;;-0.57;100.00;100554.84;5094901;28;20190;-73
2022/01/20 06:56:42;;;;;;;31.70;10.23;;;;;;;-0.50;100.00;100557.88;5093751;28;20992;-72
2022/01/20 06:59:10;;;;;;;26.57;11.40;;;;;;;-0.41;100.00;100551.63;5093862;28;20240;-73
2022/01/20 07:01:37;;;;;;;23.07;10.90;;;;;;;-0.46;100.00;100542.81;5093822;28;20225;-74
2022/01/20 07:04:05;;;;;;;73.47;26.97;;;;;;;-0.33;100.00;100555.56;5093901;28;20198;-73
2022/01/20 07:06:32;;;;;;;39.60;17.57;;;;;;;-0.27;100.00;100576.31;5090771;28;20233;-74
2022/01/20 07:08:59;;;;;;;34.90;16.80;;;;;;;-0.34;100.00;100576.72;5093519;28;20186;-73
2022/01/20 07:11:26;;;;;;;24.50;12.57;;;;;;;-0.26;100.00;100579.00;5093673;28;20205;-75
2022/01/20 07:13:53;;;;;;;27.00;9.87;;;;;;;-0.10;100.00;100575.75;5094142;28;20201;-73
2022/01/20 07:16:20;;;;;;;15.23;8.73;;;;;;;-0.05;100.00;100574.41;5094201;28;20198;-74
2022/01/20 07:18:47;;;;;;;19.13;10.10;;;;;;;0.03;100.00;100552.84;5093961;28;20198;-72
2022/01/20 07:21:15;;;;;;;23.67;10.23;;;;;;;0.12;100.00;100542.31;5093005;28;20229;-73
2022/01/20 07:23:42;;;;;;;19.57;9.27;;;;;;;0.20;100.00;100536.06;5084596;28;20673;-73
2022/01/20 07:26:09;;;;;;;23.93;10.87;;;;;;;0.22;100.00;100525.16;5092964;28;20726;-73
2022/01/20 07:28:36;;;;;;;25.67;10.33;;;;;;;0.23;100.00;100521.81;5092919;28;20240;-73
2022/01/20 07:31:03;;;;;;;26.13;10.83;;;;;;;0.29;100.00;100516.22;5093392;28;20198;-74
2022/01/20 07:33:30;;;;;;;22.80;10.63;;;;;;;0.38;100.00;100517.69;5093310;28;20201;-75
2022/01/20 07:35:56;;;;;;;33.57;13.30;;;;;;;0.35;100.00;100525.16;5092795;28;20740;-75
2022/01/20 07:38:25;;;;;;;22.97;11.77;;;;;;;0.40;100.00;100528.84;5092872;28;20692;-75
2022/01/20 07:40:52;;;;;;;20.80;12.03;;;;;;;0.52;100.00;100535.50;5092823;28;20190;-74
2022/01/20 07:43:19;;;;;;;19.63;10.90;;;;;;;0.57;100.00;100534.13;5093151;28;20195;-74
2022/01/20 07:45:46;;;;;;;22.93;11.80;;;;;;;0.56;100.00;100527.25;5092875;28;20221;-73
2022/01/20 07:48:13;;;;;;;23.27;10.17;;;;;;;0.71;100.00;100534.19;5091702;28;20656;-72
2022/01/20 07:50:40;;;;;;;27.43;12.03;;;;;;;0.75;100.00;100538.66;5091947;28;20201;-73
2022/01/20 07:53:07;;;;;;;20.93;10.30;;;;;;;0.82;100.00;100542.50;5093378;28;20198;-74
2022/01/20 07:55:35;;;;;;;17.67;10.50;;;;;;;0.85;100.00;100543.56;5093351;28;20559;-73
2022/01/20 07:58:02;;;;;;;21.17;9.90;;;;;;;1.19;100.00;100543.88;5092649;28;20190;-74
2022/01/20 08:00:28;;;;;;;32.27;12.20;;;;;;;1.44;100.00;100541.97;5092040;28;20190;-80
2022/01/20 08:02:55;;;;;;;23.13;12.07;;;;;;;1.75;100.00;100533.53;5092475;28;20190;-74
2022/01/20 08:05:22;;;;;;;21.73;10.97;;;;;;;1.48;100.00;100500.50;5092105;28;20226;-74
2022/01/20 08:07:49;;;;;;;19.23;11.20;;;;;;;1.74;100.00;100559.88;5091963;28;20282;-74
2022/01/20 08:10:16;;;;;;;17.00;10.47;;;;;;;1.73;100.00;100560.66;5092375;28;20222;-74
2022/01/20 08:12:44;;;;;;;23.57;11.13;;;;;;;1.77;100.00;100558.38;5089021;28;20595;-74
2022/01/20 08:15:12;;;;;;;27.60;12.37;;;;;;;1.67;100.00;100543.31;5090120;28;20206;-74
2022/01/20 08:17:39;;;;;;;22.17;11.53;;;;;;;1.66;100.00;100543.22;5092293;28;20198;-74
2022/01/20 08:20:07;;;;;;;36.67;14.27;;;;;;;1.66;99.21;100549.22;5092394;28;20230;-74
2022/01/20 08:22:34;;;;;;;40.33;13.50;;;;;;;1.50;97.78;100544.88;5091933;28;20205;-73
2022/01/20 08:25:01;;;;;;;27.43;11.97;;;;;;;1.52;98.78;100526.22;5092388;28;20197;-73
2022/01/20 08:27:28;;;;;;;33.70;12.37;;;;;;;1.66;98.43;100533.00;5091956;28;20191;-74
2022/01/20 08:29:56;;;;;;;33.60;14.03;;;;;;;1.77;96.87;100529.38;5091913;28;20201;-73
2022/01/20 08:32:23;;;;;;;41.90;13.70;;;;;;;1.53;94.72;100507.53;5091800;28;20206;-73
2022/01/20 08:34:50;;;;;;;32.80;12.73;;;;;;;1.85;93.70;100533.25;5091794;28;20201;-74
2022/01/20 08:37:17;;;;;;;36.93;12.07;;;;;;;1.95;92.78;100527.88;5091651;28;20255;-74
2022/01/20 08:39:44;;;;;;;36.13;13.13;;;;;;;2.03;92.40;100524.06;5092155;28;20307;-73
2022/01/20 08:42:12;;;;;;;34.77;12.27;;;;;;;2.06;91.26;100525.91;5092450;28;20225;-73
2022/01/20 08:44:42;;;;;;;29.87;13.00;;;;;;;2.20;89.75;100530.09;5092193;28;20186;-74
2022/01/20 08:47:16;;;;;;;40.13;15.00;;;;;;;2.30;90.06;100537.47;5092540;28;20669;-73
2022/01/20 08:49:43;;;;;;;33.00;13.60;;;;;;;2.45;91.74;100523.84;5092024;28;20194;-73
2022/01/20 08:52:10;;;;;;;27.83;13.77;;;;;;;2.46;91.37;100512.78;5091369;28;20191;-73
2022/01/20 08:54:37;;;;;;;48.03;14.63;;;;;;;2.48;89.15;100503.53;5092442;28;20198;-73
2022/01/20 08:57:04;;;;;;;41.47;14.33;;;;;;;2.81;87.54;100521.50;5092084;28;20194;-73
2022/01/20 08:59:31;;;;;;;38.87;15.00;;;;;;;3.01;85.04;100525.97;5085740;28;20186;-73
2022/01/20 09:01:58;;;;;;;41.63;16.17;;;;;;;3.19;80.76;100521.78;5091833;28;20679;-74
2022/01/20 09:04:26;;;;;;;23.83;8.67;;;;;;;3.62;68.79;100522.25;5092285;28;20205;-74
2022/01/20 09:06:53;;;;;;;17.17;8.20;;;;;;;4.29;60.97;100528.06;5088087;28;20229;-74
2022/01/20 09:09:21;;;;;;;17.13;6.03;;;;;;;4.91;53.23;100526.69;5091039;28;20197;-74
2022/01/20 09:27:59;;;;;;;6.03;4.80;;;;;;;6.59;44.65;100501.91;5109854;27;20552;-71
2022/01/20 09:30:27;;;;;;;7.57;4.97;;;;;;;6.54;44.29;100492.25;5109182;28;20193;-72
2022/01/20 09:33:01;;;;;;;39.00;17.00;;;;;;;6.64;44.09;100484.03;5109348;28;20284;-71
2022/01/20 09:35:31;;;;;;;11.57;5.13;;;;;;;6.54;44.76;100484.50;5109265;28;20278;-71
2022/01/20 09:37:58;;;;;;;10.90;6.00;;;;;;;6.63;44.13;100483.19;5090076;28;20372;-72
2022/01/20 09:40:25;;;;;;;11.97;4.67;;;;;;;6.60;43.42;100466.72;5088769;28;20240;-71
2022/01/20 09:42:51;;;;;;;32.83;15.67;;;;;;;6.84;43.64;100475.34;5089142;28;20187;-71
2022/01/20 09:45:20;;;;;;;37.97;14.87;;;;;;;6.93;42.75;100475.66;5088717;28;20197;-71
2022/01/20 09:47:47;;;;;;;28.50;12.50;;;;;;;6.89;43.49;100445.44;5088218;28;20217;-72
2022/01/20 09:50:18;;;;;;;4.83;3.53;;;;;;;7.04;42.95;100451.13;5088778;28;20660;-72
2022/01/20 09:52:45;;;;;;;7.90;4.50;;;;;;;7.16;42.64;100448.13;5088807;28;20259;-71
2022/01/20 09:55:12;;;;;;;11.37;6.17;;;;;;;7.27;42.73;100444.22;5089097;28;20198;-73
2022/01/20 09:57:39;;;;;;;7.73;5.17;;;;;;;7.24;42.38;100426.91;5088751;28;20190;-73
2022/01/20 10:00:10;;;;;;;20.10;8.53;;;;;;;7.36;42.04;100440.22;5088916;28;20252;-73
2022/01/20 10:02:50;;;;;;;7.97;4.43;;;;;;;7.38;43.21;100435.13;5089273;28;20197;-76
2022/01/20 10:05:27;;;;;;;20.03;10.40;;;;;;;7.29;43.14;100417.63;5088483;28;20295;-72
2022/01/20 10:08:00;;;;;;;8.40;5.07;;;;;;;7.43;42.76;100429.28;5088510;28;20202;-71
2022/01/20 10:10:37;;;;;;;9.27;4.30;;;;;;;7.40;43.28;100411.13;5088959;28;20186;-72
2022/01/20 10:13:05;;;;;;;9.47;3.57;;;;;;;7.41;42.65;100405.16;5088713;28;20190;-71
2022/01/20 10:15:32;;;;;;;13.03;5.57;;;;;;;7.45;43.21;100400.97;5088768;28;20225;-73
2022/01/20 10:18:06;;;;;;;7.80;4.43;;;;;;;7.41;43.74;100392.25;5087647;28;20210;-72
2022/01/20 10:20:33;;;;;;;5.00;3.77;;;;;;;7.38;43.87;100376.66;5088393;28;20193;-73
2022/01/20 10:23:00;;;;;;;7.40;5.00;;;;;;;7.58;43.99;100389.31;5088405;28;20248;-72
2022/01/20 10:25:27;;;;;;;8.10;5.73;;;;;;;7.39;44.16;100364.63;5093659;28;20197;-74
2022/01/20 10:27:57;;;;;;;8.97;4.70;;;;;;;7.23;44.69;100334.91;5088373;28;20191;-78
2022/01/20 10:30:27;;;;;;;7.90;5.80;;;;;;;7.76;44.91;100415.72;5075628;28;20198;-73
2022/01/20 10:33:00;;;;;;;3.57;3.10;;;;;;;7.82;43.93;100421.94;5074691;28;20245;-72
2022/01/20 10:35:32;;;;;;;7.23;4.90;;;;;;;7.91;44.72;100426.53;5074745;28;20270;-73
2022/01/20 10:38:10;;;;;;;11.87;4.03;;;;;;;7.85;44.44;100405.66;5074738;28;20202;-73
2022/01/20 10:40:46;;;;;;;6.17;4.30;;;;;;;8.02;44.61;100414.81;5074539;28;20190;-72
2022/01/20 10:43:20;;;;;;;6.27;3.93;;;;;;;8.05;45.09;100414.03;5074399;28;20194;-72
2022/01/20 10:45:47;;;;;;;7.17;4.03;;;;;;;8.07;44.60;100407.19;5073589;28;20256;-72
2022/01/20 10:48:19;;;;;;;5.27;3.67;;;;;;;8.18;44.89;100406.69;5072722;28;20677;-74
2022/01/20 10:50:47;;;;;;;7.27;4.40;;;;;;;8.26;44.45;100406.91;5091805;28;20194;-74
2022/01/20 10:53:19;;;;;;;5.83;3.00;;;;;;;8.34;45.25;100403.78;5094445;28;20198;-73
2022/01/20 10:55:45;;;;;;;5.43;3.90;;;;;;;8.35;45.15;100408.09;5094049;28;20255;-74
2022/01/20 10:58:15;;;;;;;11.67;4.67;;;;;;;8.48;45.58;100396.41;5093911;28;20194;-73
2022/01/20 11:00:44;;;;;;;5.67;3.70;;;;;;;8.52;45.86;100377.56;5093815;28;20293;-76
2022/01/20 11:03:10;;;;;;;5.97;4.63;;;;;;;8.61;46.19;100375.22;5093761;28;20684;-75
2022/01/20 11:05:39;;;;;;;10.50;4.88;;;;;;;8.64;46.48;100377.00;5093882;28;20197;-74
2022/01/20 11:08:07;;;;;;;7.63;4.13;;;;;;;8.66;46.53;100372.78;5093050;28;20196;-75
2022/01/20 11:10:37;;;;;;;6.10;4.60;;;;;;;8.68;47.36;100378.84;5090588;28;20187;-74
2022/01/20 11:13:04;;;;;;;5.77;3.77;;;;;;;8.79;47.34;100364.50;5084008;28;20668;-76
2022/01/20 11:15:31;;;;;;;3.73;3.00;;;;;;;8.80;48.29;100354.22;5074717;28;20209;-74
2022/01/20 11:17:59;;;;;;;5.53;2.80;;;;;;;8.81;48.67;100352.53;5074081;28;20317;-74
2022/01/20 11:20:29;;;;;;;9.97;5.87;;;;;;;8.94;48.92;100357.16;5074068;28;20202;-75
2022/01/20 11:22:59;;;;;;;5.95;3.20;;;;;;;9.11;49.13;100358.47;5073431;28;20286;-73
2022/01/20 11:25:29;;;;;;;4.50;3.03;;;;;;;9.20;49.36;100365.59;5072456;28;20199;-73
2022/01/20 11:28:05;;;;;;;6.20;4.25;;;;;;;9.18;49.10;100355.19;5072952;28;20191;-75
2022/01/20 11:30:33;;;;;;;4.20;2.30;;;;;;;9.20;49.08;100356.13;5072508;28;20579;-75
2022/01/20 11:33:03;;;;;;;9.55;2.75;;;;;;;9.21;49.72;100356.97;5072737;28;20191;-74
2022/01/20 11:35:42;;;;;;;7.47;3.28;;;;;;;9.31;49.97;100353.78;5073415;28;20199;-75
2022/01/20 11:38:11;;;;;;;7.30;2.90;;;;;;;8.99;49.13;100303.81;5072881;28;20640;-74
2022/01/20 11:40:53;;;;;;;7.87;2.93;;;;;;;9.32;49.42;100352.94;5072813;28;20228;-74
2022/01/20 11:43:33;;;;;;;3.28;2.85;;;;;;;9.22;49.44;100318.22;5072907;28;20187;-74
2022/01/20 11:46:10;;;;;;;10.13;5.30;;;;;;;9.39;49.51;100328.94;5073715;28;20268;-74
2022/01/20 11:48:37;;;;;;;9.57;4.85;;;;;;;9.35;49.83;100335.78;5072766;28;20202;-75
2022/01/20 11:51:06;;;;;;;11.43;7.15;;;;;;;9.43;50.86;100338.53;5072675;28;20191;-73
2022/01/20 11:53:40;;;;;;;11.45;7.47;;;;;;;9.41;50.34;100335.94;5073241;28;20199;-71
2022/01/20 11:56:10;;;;;;;8.27;3.33;;;;;;;9.32;49.62;100321.88;5073137;28;20666;-72
2022/01/20 11:58:37;;;;;;;10.43;6.07;;;;;;;9.37;49.82;100326.34;5073138;28;20268;-71
2022/01/20 12:01:06;;;;;;;6.53;4.30;;;;;;;9.35;48.18;100335.78;5072644;28;20218;-71
2022/01/20 12:03:34;;;;;;;12.07;6.85;;;;;;;9.40;48.53;100333.31;5072975;28;20194;-72
2022/01/20 12:06:03;;;;;;;15.87;7.00;;;;;;;9.38;47.62;100315.13;5072657;28;20195;-73
2022/01/20 12:08:31;;;;;;;16.77;8.30;;;;;;;9.34;47.92;100315.94;5072731;28;20626;-72
2022/01/20 12:11:00;;;;;;;4.45;3.10;;;;;;;9.34;47.01;100328.88;5072633;28;20203;-72
2022/01/20 12:13:30;;;;;;;32.63;12.07;;;;;;;9.48;46.70;100325.72;5072936;28;20199;-74
2022/01/20 12:16:00;;;;;;;6.10;4.03;;;;;;;9.46;46.25;100325.66;5073040;28;20187;-70
2022/01/20 12:18:27;;;;;;;15.13;7.38;;;;;;;9.48;45.31;100321.41;5071842;28;20246;-73
2022/01/20 12:20:53;;;;;;;5.07;4.13;;;;;;;9.48;45.22;100325.72;5072671;28;20202;-73
2022/01/20 12:23:24;;;;;;;7.93;3.75;;;;;;;9.44;45.45;100325.66;5072082;28;20198;-72
2022/01/20 12:25:51;;;;;;;3.55;2.65;;;;;;;9.51;45.01;100325.78;5072237;28;20219;-73
2022/01/20 12:28:18;;;;;;;3.75;3.45;;;;;;;9.49;45.38;100322.31;5072717;28;20199;-74
2022/01/20 12:30:48;;;;;;;7.50;3.55;;;;;;;9.40;46.20;100310.88;5072662;28;20195;-75
2022/01/20 12:33:18;;;;;;;3.47;3.08;;;;;;;9.49;46.22;100328.31;5072183;28;20276;-72
2022/01/20 12:35:48;;;;;;;6.55;3.70;;;;;;;9.52;46.21;100322.38;5072629;28;20227;-72